Terminal Aerodrome Forecast
Issued by NWS

Home | Current Version | Previous Version | Text Only | Print | Product List | Glossary On
Versions: 1 2 3 4 5 6 7 8 9 10 11 12 13 14
237
FTUS44 KEPZ 281730
TAFDMN
TAF
KDMN 281730Z 2818/2918 12010G20KT P6SM FEW090 FEW250
     FM290300 05006KT P6SM FEW100 FEW250
     FM291700 13007KT P6SM SCT070 SCT250=

USA.gov is the U.S. government's official web portal to all federal, state and local government web resources and services.